createdAt,value
2018-07-16T16:12:25.872Z,96390
2018-07-16T16:15:32.829Z,96391
2018-07-16T16:16:48.793Z,96393
2018-07-16T16:18:04.725Z,96391
2018-07-16T16:19:26.962Z,96388
2018-07-16T16:22:14.017Z,96385
2018-07-16T16:23:30.001Z,96380
2018-07-16T16:24:45.916Z,96379
2018-07-16T16:26:01.880Z,96380
2018-07-16T16:27:17.814Z,96381
2018-07-16T16:28:33.697Z,96378
2018-07-16T16:29:49.626Z,96380
2018-07-16T16:31:05.608Z,96378
2018-07-16T16:32:21.587Z,96383
2018-07-16T16:33:37.521Z,96376
2018-07-16T16:34:53.404Z,96375
2018-07-16T16:36:09.364Z,96377
2018-07-16T16:37:25.307Z,96369
2018-07-16T16:38:41.241Z,96372
2018-07-16T16:39:57.237Z,96369
2018-07-16T16:41:13.177Z,96377
2018-07-16T16:42:29.323Z,96378
2018-07-16T16:43:45.263Z,96382
2018-07-16T16:45:01.194Z,96379
2018-07-16T16:46:17.123Z,96382
2018-07-16T16:47:33.119Z,96379
2018-07-16T16:48:49.035Z,96379
2018-07-16T16:50:04.948Z,96382
2018-07-16T16:51:20.924Z,96380
2018-07-16T16:52:36.933Z,96380
2018-07-16T16:53:52.974Z,96381
2018-07-16T16:55:08.906Z,96383
2018-07-16T16:56:24.826Z,96385
2018-07-16T16:57:40.880Z,96381
2018-07-16T16:58:56.797Z,96383
2018-07-16T17:00:12.782Z,96380
2018-07-16T17:01:28.760Z,96379
2018-07-16T17:02:44.750Z,96382
2018-07-16T17:04:00.840Z,96383
2018-07-16T17:05:16.806Z,96383
2018-07-16T17:06:32.772Z,96381
2018-07-16T17:07:48.699Z,96384
2018-07-16T17:09:04.640Z,96387
2018-07-16T17:10:20.581Z,96388
2018-07-16T17:11:36.510Z,96388
2018-07-16T17:12:52.413Z,96387
2018-07-16T17:14:08.485Z,96395
2018-07-16T17:15:24.455Z,96395
2018-07-16T17:16:40.323Z,96394
2018-07-16T17:17:56.225Z,96400
2018-07-16T17:19:12.169Z,96400
2018-07-16T17:20:28.118Z,96403
2018-07-16T17:21:44.007Z,96401
2018-07-16T17:22:59.933Z,96405
2018-07-16T17:24:15.887Z,96400
2018-07-16T17:25:31.824Z,96402
2018-07-16T17:26:47.731Z,96396
2018-07-16T17:28:03.675Z,96398
2018-07-16T17:29:19.673Z,96397
2018-07-16T17:30:36.573Z,96396
2018-07-16T17:31:52.469Z,96396
2018-07-16T17:33:08.468Z,96401
2018-07-16T17:34:24.410Z,96399
2018-07-16T17:35:40.313Z,96404
2018-07-16T17:36:56.240Z,96403
2018-07-16T17:38:12.159Z,96406
2018-07-16T17:39:28.148Z,96408
2018-07-16T17:40:44.092Z,96405
2018-07-16T17:41:59.971Z,96407
2018-07-16T17:43:15.929Z,96409
2018-07-16T17:44:31.900Z,96405
2018-07-16T17:45:47.921Z,96409
2018-07-16T17:47:03.778Z,96409
2018-07-16T17:48:19.702Z,96412
2018-07-16T17:49:35.698Z,96416
2018-07-16T17:50:51.610Z,96411
2018-07-16T17:52:07.591Z,96415
2018-07-16T17:53:23.645Z,96417
2018-07-16T17:54:39.525Z,96424
2018-07-16T17:55:55.483Z,96424
2018-07-16T17:57:12.416Z,96425
2018-07-16T17:58:28.361Z,96427
2018-07-16T17:59:44.374Z,96425
2018-07-16T18:01:00.360Z,96423
2018-07-16T18:02:16.275Z,96425
2018-07-16T18:03:32.221Z,96428
2018-07-16T18:04:48.173Z,96431
2018-07-16T18:06:04.122Z,96428
2018-07-16T18:07:20.020Z,96435
2018-07-16T18:08:35.948Z,96432
2018-07-16T18:09:51.900Z,96440
2018-07-16T18:11:07.840Z,96450
2018-07-16T18:12:23.745Z,96448
2018-07-16T18:13:39.703Z,96448
2018-07-16T18:14:55.659Z,96446
2018-07-16T18:16:11.636Z,96446
2018-07-16T18:17:27.704Z,96451
2018-07-16T18:18:43.662Z,96450
2018-07-16T18:21:40.097Z,96456
2018-07-16T18:22:57.137Z,96458
2018-07-16T18:24:13.150Z,96458
2018-07-16T18:25:29.078Z,96458
2018-07-16T18:26:46.073Z,96461
2018-07-16T18:28:02.088Z,96461
2018-07-16T18:29:18.045Z,96463
2018-07-16T18:30:34.245Z,96462
2018-07-16T18:31:50.172Z,96463
2018-07-16T18:33:06.073Z,96459
2018-07-16T18:34:22.018Z,96465
2018-07-16T18:35:38.077Z,96464
2018-07-16T18:36:53.878Z,96468
2018-07-16T18:39:51.450Z,96464
2018-07-16T18:41:07.412Z,96471
2018-07-16T18:42:23.366Z,96475
2018-07-16T18:43:39.288Z,96477
2018-07-16T18:44:55.246Z,96484
2018-07-16T18:46:11.234Z,96486
2018-07-16T18:47:27.163Z,96487
2018-07-16T18:48:43.090Z,96490
2018-07-16T18:49:59.082Z,96488
2018-07-16T18:51:15.032Z,96494
2018-07-16T18:52:30.949Z,96491
2018-07-16T18:53:46.888Z,96493
2018-07-16T18:55:02.816Z,96497
2018-07-16T18:56:18.879Z,96499
2018-07-16T18:57:34.849Z,96506
2018-07-16T18:58:50.826Z,96507
2018-07-16T19:00:06.814Z,96509
2018-07-16T19:01:22.745Z,96510
2018-07-16T19:02:38.733Z,96510
2018-07-16T19:03:54.712Z,96508
2018-07-16T19:05:10.661Z,96515
2018-07-16T19:06:26.572Z,96513
2018-07-16T19:07:42.531Z,96516
2018-07-16T19:08:58.500Z,96514
2018-07-16T19:10:14.491Z,96515
2018-07-16T19:11:30.518Z,96514
2018-07-16T19:12:46.441Z,96518
2018-07-16T19:14:02.435Z,96516
2018-07-16T19:16:58.999Z,96517
2018-07-16T19:18:14.944Z,96522
2018-07-16T19:19:30.914Z,96521
2018-07-16T19:20:46.968Z,96530
2018-07-16T19:22:03.049Z,96529
2018-07-16T19:23:18.984Z,96531
2018-07-16T19:24:34.959Z,96531
2018-07-16T19:25:50.955Z,96529
2018-07-16T19:27:06.910Z,96529
2018-07-16T19:28:22.854Z,96534
2018-07-16T19:29:38.851Z,96533
2018-07-16T19:30:54.801Z,96534
2018-07-16T19:32:10.774Z,96530
2018-07-16T19:33:26.692Z,96531
2018-07-16T19:34:42.668Z,96536
2018-07-16T19:35:58.791Z,96539
2018-07-16T19:37:14.687Z,96543
2018-07-16T19:38:30.689Z,96544
2018-07-16T19:39:46.588Z,96542
2018-07-16T19:41:02.532Z,96545
2018-07-16T19:42:18.521Z,96546
2018-07-16T19:43:34.482Z,96550
2018-07-16T19:44:50.449Z,96551
2018-07-16T19:46:06.343Z,96548
2018-07-16T19:47:22.300Z,96553
2018-07-16T19:48:38.251Z,96556
2018-07-16T19:49:54.198Z,96562
2018-07-16T19:51:10.207Z,96558
2018-07-16T19:52:26.204Z,96558
2018-07-16T19:53:42.185Z,96565
2018-07-16T19:54:58.116Z,96566
2018-07-16T19:56:14.052Z,96564
2018-07-16T19:57:30.017Z,96570
2018-07-16T19:58:46.033Z,96573
2018-07-16T20:00:02.052Z,96573
2018-07-16T20:01:18.002Z,96569
2018-07-16T20:02:34.054Z,96576
2018-07-16T20:03:50.146Z,96582
2018-07-16T20:05:07.127Z,96584
2018-07-16T20:06:23.039Z,96581
2018-07-16T20:07:38.972Z,96580
2018-07-16T20:08:55.106Z,96583
2018-07-16T20:10:12.009Z,96585
2018-07-16T20:11:27.966Z,96586
2018-07-16T20:12:43.944Z,96590
2018-07-16T20:13:59.894Z,96589
2018-07-16T20:15:15.890Z,96592
2018-07-16T20:16:31.783Z,96591
2018-07-16T20:17:47.760Z,96588
2018-07-16T20:19:03.798Z,96587
2018-07-16T20:20:19.656Z,96589
2018-07-16T20:21:35.558Z,96590
2018-07-16T20:22:51.491Z,96593
2018-07-16T20:24:07.457Z,96597
2018-07-16T20:25:23.434Z,96595
2018-07-16T20:26:39.412Z,96595
2018-07-16T20:27:55.430Z,96596
2018-07-16T20:29:11.386Z,96601
2018-07-16T20:30:27.344Z,96600
2018-07-16T20:31:43.338Z,96595
2018-07-16T20:32:59.302Z,96595
2018-07-16T20:34:15.332Z,96596
2018-07-16T20:35:31.318Z,96595
2018-07-16T20:36:47.380Z,96593
2018-07-16T20:38:03.371Z,96594
2018-07-16T20:39:19.372Z,96597
2018-07-16T20:40:35.331Z,96598
2018-07-16T20:41:51.262Z,96601
2018-07-16T20:43:07.243Z,96606
2018-07-16T20:44:23.137Z,96603
2018-07-16T20:45:39.123Z,96602
2018-07-16T20:46:55.230Z,96605
2018-07-16T20:48:11.173Z,96608
2018-07-16T20:49:27.079Z,96607
2018-07-16T20:50:43.063Z,96613
2018-07-16T20:51:58.994Z,96612
2018-07-16T20:53:14.870Z,96614
2018-07-16T20:54:30.780Z,96611
2018-07-16T20:55:46.748Z,96613
2018-07-16T20:57:02.692Z,96613
2018-07-16T20:58:18.652Z,96617
2018-07-16T20:59:34.608Z,96620
2018-07-16T21:00:50.487Z,96623
2018-07-16T21:02:06.479Z,96623
2018-07-16T21:03:22.394Z,96628
2018-07-16T21:04:38.302Z,96623
2018-07-16T21:05:54.314Z,96624
2018-07-16T21:07:10.249Z,96627
2018-07-16T21:08:26.136Z,96625
2018-07-16T21:09:42.050Z,96622
2018-07-16T21:10:57.934Z,96621
2018-07-16T21:12:13.902Z,96624
2018-07-16T21:13:29.877Z,96622
2018-07-16T21:14:45.876Z,96627
2018-07-16T21:16:02.844Z,96629
2018-07-16T21:17:18.878Z,96626
2018-07-16T21:18:34.841Z,96628
2018-07-16T21:19:50.758Z,96623
2018-07-16T21:21:06.648Z,96627
2018-07-16T21:22:22.637Z,96630
2018-07-16T21:23:38.764Z,96628
2018-07-16T21:24:54.702Z,96629
2018-07-16T21:26:10.639Z,96630
2018-07-16T21:27:26.577Z,96639
2018-07-16T21:28:42.650Z,96637
2018-07-16T21:29:58.576Z,96640
2018-07-16T21:31:14.495Z,96642
2018-07-16T21:32:31.376Z,96642
2018-07-16T21:33:47.559Z,96640
2018-07-16T21:35:04.685Z,96647
2018-07-16T21:36:20.666Z,96648
2018-07-16T21:37:57.219Z,96647
2018-07-16T21:39:13.339Z,96649
2018-07-16T21:40:29.434Z,96648
2018-07-16T21:41:45.248Z,96647
2018-07-16T21:43:01.242Z,96647
2018-07-16T21:44:17.258Z,96650
2018-07-16T21:45:33.506Z,96652
2018-07-16T21:46:49.677Z,96651
2018-07-16T21:48:05.852Z,96656
2018-07-16T21:49:21.803Z,96658
2018-07-16T21:50:37.731Z,96658
2018-07-16T21:51:53.634Z,96659
2018-07-16T21:53:09.556Z,96660
2018-07-16T21:54:25.696Z,96662
2018-07-16T21:55:41.567Z,96665
2018-07-16T21:56:57.590Z,96663
2018-07-16T21:58:13.570Z,96661
2018-07-16T21:59:29.491Z,96658
2018-07-16T22:00:45.610Z,96656
2018-07-16T22:02:01.626Z,96660
2018-07-16T22:03:17.528Z,96658
2018-07-16T22:04:33.422Z,96658
2018-07-16T22:05:49.321Z,96660
2018-07-16T22:07:05.218Z,96659
2018-07-16T22:08:21.122Z,96659
2018-07-16T22:09:37.005Z,96663
2018-07-16T22:10:52.916Z,96665
2018-07-16T22:12:08.827Z,96666
2018-07-16T22:13:24.698Z,96663
2018-07-16T22:14:40.612Z,96664
2018-07-16T22:15:56.551Z,96665
2018-07-16T22:17:12.440Z,96662
2018-07-16T22:18:28.303Z,96664
2018-07-16T22:19:44.189Z,96664
2018-07-16T22:21:00.104Z,96668
2018-07-16T22:22:16.053Z,96668
2018-07-16T22:23:31.903Z,96672
2018-07-16T22:24:47.790Z,96674
2018-07-16T22:26:03.685Z,96676
2018-07-16T22:27:19.574Z,96679
2018-07-16T22:28:35.439Z,96684
2018-07-16T22:29:51.638Z,96685
2018-07-16T22:31:07.529Z,96688
2018-07-16T22:32:23.441Z,96690
2018-07-16T22:33:39.288Z,96690
2018-07-16T22:34:55.173Z,96691
2018-07-16T22:36:11.071Z,96694
2018-07-16T22:37:26.945Z,96690
2018-07-16T22:38:42.981Z,96693
2018-07-16T22:39:58.883Z,96692
2018-07-16T22:41:14.752Z,96697
2018-07-16T22:42:30.683Z,96697
2018-07-16T22:43:46.578Z,96700
2018-07-16T22:45:02.452Z,96707
2018-07-16T22:46:18.321Z,96708
2018-07-16T22:47:34.217Z,96708
2018-07-16T22:48:50.094Z,96709
2018-07-16T22:50:05.977Z,96707
2018-07-16T22:51:21.850Z,96707
2018-07-16T22:52:37.750Z,96708
2018-07-16T22:53:53.645Z,96708
2018-07-16T22:55:09.529Z,96705
2018-07-16T22:56:25.561Z,96708
2018-07-16T22:57:41.455Z,96721
2018-07-16T22:58:57.563Z,96715
2018-07-16T23:00:13.453Z,96719
2018-07-16T23:01:29.318Z,96719
2018-07-16T23:02:45.233Z,96724
2018-07-16T23:04:01.160Z,96726
2018-07-16T23:05:17.070Z,96727
2018-07-16T23:06:32.968Z,96724
2018-07-16T23:07:49.018Z,96730
2018-07-16T23:09:04.927Z,96732
2018-07-16T23:10:20.787Z,96728
2018-07-16T23:11:36.646Z,96728
2018-07-16T23:12:52.544Z,96732
2018-07-16T23:14:08.489Z,96732
2018-07-16T23:15:24.380Z,96738
2018-07-16T23:16:40.226Z,96739
2018-07-16T23:17:56.103Z,96740
2018-07-16T23:19:12.011Z,96735
2018-07-16T23:20:27.854Z,96738
2018-07-16T23:21:43.698Z,96737
2018-07-16T23:22:59.598Z,96738
2018-07-16T23:24:15.559Z,96738
2018-07-16T23:25:31.422Z,96742
2018-07-16T23:26:47.298Z,96745
2018-07-16T23:28:03.425Z,96747
2018-07-16T23:29:19.318Z,96750
2018-07-16T23:30:35.185Z,96749
2018-07-16T23:31:51.054Z,96753
2018-07-16T23:33:06.958Z,96755
2018-07-16T23:34:22.801Z,96751
2018-07-16T23:35:38.684Z,96757
2018-07-16T23:36:54.562Z,96755
2018-07-16T23:38:10.422Z,96755
2018-07-16T23:39:26.317Z,96755
2018-07-16T23:40:42.210Z,96752
2018-07-16T23:41:58.076Z,96753
2018-07-16T23:43:13.984Z,96745
2018-07-16T23:44:29.864Z,96751
2018-07-16T23:45:45.730Z,96746
2018-07-16T23:47:01.621Z,96751
2018-07-16T23:48:17.504Z,96748
2018-07-16T23:49:33.377Z,96750
2018-07-16T23:50:49.274Z,96748
2018-07-16T23:52:05.134Z,96747
2018-07-16T23:53:21.004Z,96748
2018-07-16T23:54:36.900Z,96751
2018-07-16T23:55:52.898Z,96750
2018-07-16T23:57:08.635Z,96750
2018-07-16T23:58:24.522Z,96751
2018-07-16T23:59:40.410Z,96750
